sensor_id;sensor_type;location;lat;lon;timestamp;temperature;humidity
16513;DHT22;8369;48.030;11.598;2023-11-22T00:00:23;7.10;99.90
16513;DHT22;8369;48.030;11.598;2023-11-22T00:02:52;7.00;99.90
16513;DHT22;8369;48.030;11.598;2023-11-22T00:05:19;7.10;99.90
16513;DHT22;8369;48.030;11.598;2023-11-22T00:07:45;7.10;99.90
16513;DHT22;8369;48.030;11.598;2023-11-22T00:10:11;7.10;99.90
16513;DHT22;8369;48.030;11.598;2023-11-22T00:12:37;7.10;99.90
16513;DHT22;8369;48.030;11.598;2023-11-22T00:15:04;7.10;99.90
16513;DHT22;8369;48.030;11.598;2023-11-22T00:17:35;7.10;99.90
16513;DHT22;8369;48.030;11.598;2023-11-22T00:20:01;7.10;99.90
16513;DHT22;8369;48.030;11.598;2023-11-22T00:22:34;7.10;99.90
16513;DHT22;8369;48.030;11.598;2023-11-22T00:25:00;7.10;99.90
16513;DHT22;8369;48.030;11.598;2023-11-22T00:27:30;7.10;99.90
16513;DHT22;8369;48.030;11.598;2023-11-22T00:29:59;7.10;99.90
16513;DHT22;8369;48.030;11.598;2023-11-22T00:32:26;7.10;99.90
16513;DHT22;8369;48.030;11.598;2023-11-22T00:34:52;7.10;99.90
16513;DHT22;8369;48.030;11.598;2023-11-22T00:37:18;7.10;99.90
16513;DHT22;8369;48.030;11.598;2023-11-22T00:39:44;7.10;99.90
16513;DHT22;8369;48.030;11.598;2023-11-22T00:42:10;7.10;99.90
16513;DHT22;8369;48.030;11.598;2023-11-22T00:44:37;7.10;99.90
16513;DHT22;8369;48.030;11.598;2023-11-22T00:47:14;7.00;99.90
16513;DHT22;8369;48.030;11.598;2023-11-22T00:49:42;7.00;99.90
16513;DHT22;8369;48.030;11.598;2023-11-22T00:52:08;7.00;99.90
16513;DHT22;8369;48.030;11.598;2023-11-22T00:54:34;7.00;99.90
16513;DHT22;8369;48.030;11.598;2023-11-22T00:57:00;7.00;99.90
16513;DHT22;8369;48.030;11.598;2023-11-22T00:59:26;7.00;99.90
16513;DHT22;8369;48.030;11.598;2023-11-22T01:01:52;7.00;99.90
16513;DHT22;8369;48.030;11.598;2023-11-22T01:04:18;6.90;99.90
16513;DHT22;8369;48.030;11.598;2023-11-22T01:06:44;6.90;99.90
16513;DHT22;8369;48.030;11.598;2023-11-22T01:09:09;6.90;99.90
16513;DHT22;8369;48.030;11.598;2023-11-22T01:11:37;6.90;99.90
16513;DHT22;8369;48.030;11.598;2023-11-22T01:14:03;6.80;99.90
16513;DHT22;8369;48.030;11.598;2023-11-22T01:16:29;6.90;99.90
16513;DHT22;8369;48.030;11.598;2023-11-22T01:18:55;6.90;99.90
16513;DHT22;8369;48.030;11.598;2023-11-22T01:21:21;6.80;99.90
16513;DHT22;8369;48.030;11.598;2023-11-22T01:23:47;6.90;99.90
16513;DHT22;8369;48.030;11.598;2023-11-22T01:26:12;6.80;99.90
16513;DHT22;8369;48.030;11.598;2023-11-22T01:28:38;6.80;99.90
16513;DHT22;8369;48.030;11.598;2023-11-22T01:31:13;6.80;99.90
16513;DHT22;8369;48.030;11.598;2023-11-22T01:33:39;6.80;99.90
16513;DHT22;8369;48.030;11.598;2023-11-22T01:36:05;6.80;99.90
16513;DHT22;8369;48.030;11.598;2023-11-22T01:38:31;6.80;99.90
16513;DHT22;8369;48.030;11.598;2023-11-22T01:40:56;6.80;99.90
16513;DHT22;8369;48.030;11.598;2023-11-22T01:43:22;6.80;99.90
16513;DHT22;8369;48.030;11.598;2023-11-22T01:45:50;6.80;99.90
16513;DHT22;8369;48.030;11.598;2023-11-22T01:48:17;6.80;99.90
16513;DHT22;8369;48.030;11.598;2023-11-22T01:50:43;6.80;99.90
16513;DHT22;8369;48.030;11.598;2023-11-22T01:53:11;6.80;99.90
16513;DHT22;8369;48.030;11.598;2023-11-22T01:55:39;6.80;99.90
16513;DHT22;8369;48.030;11.598;2023-11-22T01:58:06;6.80;99.90
16513;DHT22;8369;48.030;11.598;2023-11-22T02:00:36;6.80;99.90
16513;DHT22;8369;48.030;11.598;2023-11-22T02:03:03;6.80;99.90
16513;DHT22;8369;48.030;11.598;2023-11-22T02:05:29;6.80;99.90
16513;DHT22;8369;48.030;11.598;2023-11-22T02:07:55;6.80;99.90
16513;DHT22;8369;48.030;11.598;2023-11-22T02:10:22;6.80;99.90
16513;DHT22;8369;48.030;11.598;2023-11-22T02:12:49;6.80;99.90
16513;DHT22;8369;48.030;11.598;2023-11-22T02:15:15;6.80;99.90
16513;DHT22;8369;48.030;11.598;2023-11-22T02:17:41;6.80;99.90
16513;DHT22;8369;48.030;11.598;2023-11-22T02:20:10;6.80;99.90
16513;DHT22;8369;48.030;11.598;2023-11-22T02:22:47;6.80;99.90
16513;DHT22;8369;48.030;11.598;2023-11-22T02:25:13;6.80;99.90
16513;DHT22;8369;48.030;11.598;2023-11-22T02:27:40;6.70;99.90
16513;DHT22;8369;48.030;11.598;2023-11-22T02:30:08;6.70;99.90
16513;DHT22;8369;48.030;11.598;2023-11-22T02:32:34;6.70;99.90
16513;DHT22;8369;48.030;11.598;2023-11-22T02:35:00;6.60;99.90
16513;DHT22;8369;48.030;11.598;2023-11-22T02:37:26;6.40;99.90
16513;DHT22;8369;48.030;11.598;2023-11-22T02:40:06;6.20;99.90
16513;DHT22;8369;48.030;11.598;2023-11-22T02:42:35;6.10;99.90
16513;DHT22;8369;48.030;11.598;2023-11-22T02:45:00;6.00;99.90
16513;DHT22;8369;48.030;11.598;2023-11-22T02:47:27;5.90;99.90
16513;DHT22;8369;48.030;11.598;2023-11-22T02:49:52;5.80;99.90
16513;DHT22;8369;48.030;11.598;2023-11-22T02:52:19;5.70;99.90
16513;DHT22;8369;48.030;11.598;2023-11-22T02:54:45;5.50;99.90
16513;DHT22;8369;48.030;11.598;2023-11-22T02:57:11;5.40;99.90
16513;DHT22;8369;48.030;11.598;2023-11-22T02:59:41;5.30;99.90
16513;DHT22;8369;48.030;11.598;2023-11-22T03:02:08;5.10;99.90
16513;DHT22;8369;48.030;11.598;2023-11-22T03:04:33;5.00;99.90
16513;DHT22;8369;48.030;11.598;2023-11-22T03:06:59;4.90;99.90
16513;DHT22;8369;48.030;11.598;2023-11-22T03:09:25;4.90;99.90
16513;DHT22;8369;48.030;11.598;2023-11-22T03:11:52;4.80;99.90
16513;DHT22;8369;48.030;11.598;2023-11-22T03:14:18;4.80;99.90
16513;DHT22;8369;48.030;11.598;2023-11-22T03:16:45;4.70;99.90
16513;DHT22;8369;48.030;11.598;2023-11-22T03:19:11;4.70;99.90
16513;DHT22;8369;48.030;11.598;2023-11-22T03:21:39;4.60;99.90
16513;DHT22;8369;48.030;11.598;2023-11-22T03:24:07;4.60;99.90
16513;DHT22;8369;48.030;11.598;2023-11-22T03:26:34;4.60;99.90
16513;DHT22;8369;48.030;11.598;2023-11-22T03:29:00;4.60;99.90
16513;DHT22;8369;48.030;11.598;2023-11-22T03:31:27;4.60;99.90
16513;DHT22;8369;48.030;11.598;2023-11-22T03:33:53;4.60;99.90
16513;DHT22;8369;48.030;11.598;2023-11-22T03:36:20;4.50;99.90
16513;DHT22;8369;48.030;11.598;2023-11-22T03:38:46;4.50;99.90
16513;DHT22;8369;48.030;11.598;2023-11-22T03:41:12;4.50;99.90
16513;DHT22;8369;48.030;11.598;2023-11-22T03:43:37;4.50;99.90
16513;DHT22;8369;48.030;11.598;2023-11-22T03:46:03;4.50;99.90
16513;DHT22;8369;48.030;11.598;2023-11-22T03:48:29;4.50;99.90
16513;DHT22;8369;48.030;11.598;2023-11-22T03:50:54;4.50;99.90
16513;DHT22;8369;48.030;11.598;2023-11-22T03:53:20;4.50;99.90
16513;DHT22;8369;48.030;11.598;2023-11-22T03:55:48;4.40;99.90
16513;DHT22;8369;48.030;11.598;2023-11-22T03:58:14;4.50;99.90
16513;DHT22;8369;48.030;11.598;2023-11-22T04:00:40;4.50;99.90
16513;DHT22;8369;48.030;11.598;2023-11-22T04:03:06;4.50;99.90
16513;DHT22;8369;48.030;11.598;2023-11-22T04:05:34;4.50;99.90
16513;DHT22;8369;48.030;11.598;2023-11-22T04:08:01;4.50;99.90
16513;DHT22;8369;48.030;11.598;2023-11-22T04:10:27;4.40;99.90
16513;DHT22;8369;48.030;11.598;2023-11-22T04:12:52;4.40;99.90
16513;DHT22;8369;48.030;11.598;2023-11-22T04:15:18;4.30;99.90
16513;DHT22;8369;48.030;11.598;2023-11-22T04:17:44;4.30;99.90
16513;DHT22;8369;48.030;11.598;2023-11-22T04:20:10;4.30;99.90
16513;DHT22;8369;48.030;11.598;2023-11-22T04:22:44;4.20;99.90
16513;DHT22;8369;48.030;11.598;2023-11-22T04:25:13;4.10;99.90
16513;DHT22;8369;48.030;11.598;2023-11-22T04:27:39;4.00;99.90
16513;DHT22;8369;48.030;11.598;2023-11-22T04:30:09;4.00;99.90
16513;DHT22;8369;48.030;11.598;2023-11-22T04:32:40;4.00;99.90
16513;DHT22;8369;48.030;11.598;2023-11-22T04:35:07;3.90;99.90
16513;DHT22;8369;48.030;11.598;2023-11-22T04:37:32;3.90;99.90
16513;DHT22;8369;48.030;11.598;2023-11-22T04:39:59;3.90;99.90
16513;DHT22;8369;48.030;11.598;2023-11-22T04:42:26;3.90;99.90
16513;DHT22;8369;48.030;11.598;2023-11-22T04:44:54;3.90;99.90
16513;DHT22;8369;48.030;11.598;2023-11-22T04:47:20;3.90;99.90
16513;DHT22;8369;48.030;11.598;2023-11-22T04:49:48;4.00;99.90
16513;DHT22;8369;48.030;11.598;2023-11-22T04:52:14;4.00;99.90
16513;DHT22;8369;48.030;11.598;2023-11-22T04:54:40;4.00;99.90
16513;DHT22;8369;48.030;11.598;2023-11-22T04:57:07;4.10;99.90
16513;DHT22;8369;48.030;11.598;2023-11-22T04:59:33;4.10;99.90
16513;DHT22;8369;48.030;11.598;2023-11-22T05:01:59;4.10;99.90
16513;DHT22;8369;48.030;11.598;2023-11-22T05:04:25;4.20;99.90
16513;DHT22;8369;48.030;11.598;2023-11-22T05:06:53;4.20;99.90
16513;DHT22;8369;48.030;11.598;2023-11-22T05:09:19;4.20;99.90
16513;DHT22;8369;48.030;11.598;2023-11-22T05:11:45;4.20;99.90
16513;DHT22;8369;48.030;11.598;2023-11-22T05:14:11;4.20;99.90
16513;DHT22;8369;48.030;11.598;2023-11-22T05:16:38;4.20;99.90
16513;DHT22;8369;48.030;11.598;2023-11-22T05:19:05;4.20;99.90
16513;DHT22;8369;48.030;11.598;2023-11-22T05:21:32;4.20;99.90
16513;DHT22;8369;48.030;11.598;2023-11-22T05:23:58;4.20;99.90
16513;DHT22;8369;48.030;11.598;2023-11-22T05:26:24;4.20;99.90
16513;DHT22;8369;48.030;11.598;2023-11-22T05:28:50;4.20;99.90
16513;DHT22;8369;48.030;11.598;2023-11-22T05:31:22;4.30;99.90
16513;DHT22;8369;48.030;11.598;2023-11-22T05:33:48;4.30;99.90
16513;DHT22;8369;48.030;11.598;2023-11-22T05:36:14;4.30;99.90
16513;DHT22;8369;48.030;11.598;2023-11-22T05:38:42;4.20;99.90
16513;DHT22;8369;48.030;11.598;2023-11-22T05:41:09;4.10;99.90
16513;DHT22;8369;48.030;11.598;2023-11-22T05:43:34;4.10;99.90
16513;DHT22;8369;48.030;11.598;2023-11-22T05:46:03;4.00;99.90
16513;DHT22;8369;48.030;11.598;2023-11-22T05:48:30;4.00;99.90
16513;DHT22;8369;48.030;11.598;2023-11-22T05:50:56;4.00;99.90
16513;DHT22;8369;48.030;11.598;2023-11-22T05:53:21;4.00;99.90
16513;DHT22;8369;48.030;11.598;2023-11-22T05:55:47;4.10;99.90
16513;DHT22;8369;48.030;11.598;2023-11-22T05:58:16;4.00;99.90
16513;DHT22;8369;48.030;11.598;2023-11-22T06:00:48;4.00;99.90
16513;DHT22;8369;48.030;11.598;2023-11-22T06:03:14;4.00;99.90
16513;DHT22;8369;48.030;11.598;2023-11-22T06:05:40;4.10;99.90
16513;DHT22;8369;48.030;11.598;2023-11-22T06:08:06;4.10;99.90
16513;DHT22;8369;48.030;11.598;2023-11-22T06:10:31;4.10;99.90
16513;DHT22;8369;48.030;11.598;2023-11-22T06:12:57;4.10;99.90
16513;DHT22;8369;48.030;11.598;2023-11-22T06:15:23;4.10;99.90
16513;DHT22;8369;48.030;11.598;2023-11-22T06:17:49;4.00;99.90
16513;DHT22;8369;48.030;11.598;2023-11-22T06:20:15;4.00;99.90
16513;DHT22;8369;48.030;11.598;2023-11-22T06:22:41;4.00;99.90
16513;DHT22;8369;48.030;11.598;2023-11-22T06:25:11;4.00;99.90
16513;DHT22;8369;48.030;11.598;2023-11-22T06:27:38;4.00;99.90
16513;DHT22;8369;48.030;11.598;2023-11-22T06:30:04;4.00;99.90
16513;DHT22;8369;48.030;11.598;2023-11-22T06:32:34;3.90;99.90
16513;DHT22;8369;48.030;11.598;2023-11-22T06:34:59;3.90;99.90
16513;DHT22;8369;48.030;11.598;2023-11-22T06:37:25;3.90;99.90
16513;DHT22;8369;48.030;11.598;2023-11-22T06:39:51;3.90;99.90
16513;DHT22;8369;48.030;11.598;2023-11-22T06:42:18;3.80;99.90
16513;DHT22;8369;48.030;11.598;2023-11-22T06:44:47;3.80;99.90
16513;DHT22;8369;48.030;11.598;2023-11-22T06:47:13;3.80;99.90
16513;DHT22;8369;48.030;11.598;2023-11-22T06:49:39;3.70;99.90
16513;DHT22;8369;48.030;11.598;2023-11-22T06:52:05;3.70;99.90
16513;DHT22;8369;48.030;11.598;2023-11-22T06:54:30;3.70;99.90
16513;DHT22;8369;48.030;11.598;2023-11-22T06:56:57;3.70;99.90
16513;DHT22;8369;48.030;11.598;2023-11-22T06:59:22;3.70;99.90
16513;DHT22;8369;48.030;11.598;2023-11-22T07:01:48;3.70;99.90
16513;DHT22;8369;48.030;11.598;2023-11-22T07:04:14;3.70;99.90
16513;DHT22;8369;48.030;11.598;2023-11-22T07:06:40;3.70;99.90
16513;DHT22;8369;48.030;11.598;2023-11-22T07:09:05;3.60;99.90
16513;DHT22;8369;48.030;11.598;2023-11-22T07:11:35;3.60;99.90
16513;DHT22;8369;48.030;11.598;2023-11-22T07:14:03;3.60;99.90
16513;DHT22;8369;48.030;11.598;2023-11-22T07:16:30;3.60;99.90
16513;DHT22;8369;48.030;11.598;2023-11-22T07:18:56;3.60;99.90
16513;DHT22;8369;48.030;11.598;2023-11-22T07:21:22;3.60;99.90
16513;DHT22;8369;48.030;11.598;2023-11-22T07:23:48;3.60;99.90
16513;DHT22;8369;48.030;11.598;2023-11-22T07:26:14;3.60;99.90
16513;DHT22;8369;48.030;11.598;2023-11-22T07:28:40;3.70;99.90
16513;DHT22;8369;48.030;11.598;2023-11-22T07:31:10;3.70;99.90
16513;DHT22;8369;48.030;11.598;2023-11-22T07:33:37;3.70;99.90
16513;DHT22;8369;48.030;11.598;2023-11-22T07:36:04;3.70;99.90
16513;DHT22;8369;48.030;11.598;2023-11-22T07:38:31;3.70;99.90
16513;DHT22;8369;48.030;11.598;2023-11-22T07:40:58;3.80;99.90
16513;DHT22;8369;48.030;11.598;2023-11-22T07:43:24;3.80;99.90
16513;DHT22;8369;48.030;11.598;2023-11-22T07:45:50;3.80;99.90
16513;DHT22;8369;48.030;11.598;2023-11-22T07:48:17;3.80;99.90
16513;DHT22;8369;48.030;11.598;2023-11-22T07:50:43;3.80;99.90
16513;DHT22;8369;48.030;11.598;2023-11-22T07:53:11;3.80;99.90
16513;DHT22;8369;48.030;11.598;2023-11-22T07:55:38;3.90;99.90
16513;DHT22;8369;48.030;11.598;2023-11-22T07:58:05;3.90;99.90
16513;DHT22;8369;48.030;11.598;2023-11-22T08:00:34;3.90;99.90
16513;DHT22;8369;48.030;11.598;2023-11-22T08:03:00;3.90;99.90
16513;DHT22;8369;48.030;11.598;2023-11-22T08:05:29;3.90;99.90
16513;DHT22;8369;48.030;11.598;2023-11-22T08:08:03;3.90;99.90
16513;DHT22;8369;48.030;11.598;2023-11-22T08:10:35;3.90;99.90
16513;DHT22;8369;48.030;11.598;2023-11-22T08:13:01;3.90;99.90
16513;DHT22;8369;48.030;11.598;2023-11-22T08:15:29;4.00;99.90
16513;DHT22;8369;48.030;11.598;2023-11-22T08:17:57;3.90;99.90
16513;DHT22;8369;48.030;11.598;2023-11-22T08:20:24;3.90;99.90
16513;DHT22;8369;48.030;11.598;2023-11-22T08:22:50;3.90;99.90
16513;DHT22;8369;48.030;11.598;2023-11-22T08:25:17;3.90;99.90
16513;DHT22;8369;48.030;11.598;2023-11-22T08:27:43;3.90;99.90
16513;DHT22;8369;48.030;11.598;2023-11-22T08:30:09;3.90;99.90
16513;DHT22;8369;48.030;11.598;2023-11-22T08:32:45;3.80;99.90
16513;DHT22;8369;48.030;11.598;2023-11-22T08:35:16;3.80;99.90
16513;DHT22;8369;48.030;11.598;2023-11-22T08:37:43;3.80;99.90
16513;DHT22;8369;48.030;11.598;2023-11-22T08:40:10;3.80;99.90
16513;DHT22;8369;48.030;11.598;2023-11-22T08:42:42;3.90;99.90
16513;DHT22;8369;48.030;11.598;2023-11-22T08:45:09;3.90;99.90
16513;DHT22;8369;48.030;11.598;2023-11-22T08:47:38;3.80;99.90
16513;DHT22;8369;48.030;11.598;2023-11-22T08:50:06;3.80;99.90
16513;DHT22;8369;48.030;11.598;2023-11-22T08:52:34;3.90;99.90
16513;DHT22;8369;48.030;11.598;2023-11-22T08:54:59;3.90;99.90
16513;DHT22;8369;48.030;11.598;2023-11-22T08:57:26;3.90;99.90
16513;DHT22;8369;48.030;11.598;2023-11-22T08:59:57;3.90;99.90
16513;DHT22;8369;48.030;11.598;2023-11-22T09:02:26;3.90;99.90
16513;DHT22;8369;48.030;11.598;2023-11-22T09:04:53;4.00;99.90
16513;DHT22;8369;48.030;11.598;2023-11-22T09:07:19;4.00;99.90
16513;DHT22;8369;48.030;11.598;2023-11-22T09:09:47;4.00;99.90
16513;DHT22;8369;48.030;11.598;2023-11-22T09:12:14;4.10;99.90
16513;DHT22;8369;48.030;11.598;2023-11-22T09:14:40;4.10;99.90
16513;DHT22;8369;48.030;11.598;2023-11-22T09:17:07;4.10;99.90
16513;DHT22;8369;48.030;11.598;2023-11-22T09:19:35;4.00;99.90
16513;DHT22;8369;48.030;11.598;2023-11-22T09:22:01;4.00;99.90
16513;DHT22;8369;48.030;11.598;2023-11-22T09:24:27;4.00;99.90
16513;DHT22;8369;48.030;11.598;2023-11-22T09:26:53;4.00;99.90
16513;DHT22;8369;48.030;11.598;2023-11-22T09:29:26;4.00;99.90
16513;DHT22;8369;48.030;11.598;2023-11-22T09:31:52;4.00;99.90
16513;DHT22;8369;48.030;11.598;2023-11-22T09:34:18;4.00;99.90
16513;DHT22;8369;48.030;11.598;2023-11-22T09:36:44;4.00;99.90
16513;DHT22;8369;48.030;11.598;2023-11-22T09:39:09;4.00;99.90
16513;DHT22;8369;48.030;11.598;2023-11-22T09:41:36;4.10;99.90
16513;DHT22;8369;48.030;11.598;2023-11-22T09:44:02;4.10;99.90
16513;DHT22;8369;48.030;11.598;2023-11-22T09:46:31;4.00;99.90
16513;DHT22;8369;48.030;11.598;2023-11-22T09:49:01;4.00;99.90
16513;DHT22;8369;48.030;11.598;2023-11-22T09:51:33;4.00;99.90
16513;DHT22;8369;48.030;11.598;2023-11-22T09:54:06;3.80;99.90
16513;DHT22;8369;48.030;11.598;2023-11-22T09:56:35;3.70;99.90
16513;DHT22;8369;48.030;11.598;2023-11-22T09:59:04;3.70;99.90
16513;DHT22;8369;48.030;11.598;2023-11-22T10:01:33;3.70;99.90
16513;DHT22;8369;48.030;11.598;2023-11-22T10:04:04;3.70;99.90
16513;DHT22;8369;48.030;11.598;2023-11-22T10:06:34;3.70;99.90
16513;DHT22;8369;48.030;11.598;2023-11-22T10:09:04;3.70;99.90
16513;DHT22;8369;48.030;11.598;2023-11-22T10:11:36;3.70;99.90
16513;DHT22;8369;48.030;11.598;2023-11-22T10:14:04;3.70;99.90
16513;DHT22;8369;48.030;11.598;2023-11-22T10:16:30;3.70;99.90
16513;DHT22;8369;48.030;11.598;2023-11-22T10:18:57;3.80;99.90
16513;DHT22;8369;48.030;11.598;2023-11-22T10:21:25;3.80;99.90
16513;DHT22;8369;48.030;11.598;2023-11-22T10:24:02;3.80;99.90
16513;DHT22;8369;48.030;11.598;2023-11-22T10:26:29;3.80;99.90
16513;DHT22;8369;48.030;11.598;2023-11-22T10:28:56;3.80;99.90
16513;DHT22;8369;48.030;11.598;2023-11-22T10:31:23;3.80;99.90
16513;DHT22;8369;48.030;11.598;2023-11-22T10:33:50;3.90;99.90
16513;DHT22;8369;48.030;11.598;2023-11-22T10:36:16;3.90;99.90
16513;DHT22;8369;48.030;11.598;2023-11-22T10:38:47;3.90;99.90
16513;DHT22;8369;48.030;11.598;2023-11-22T10:41:14;3.90;99.90
16513;DHT22;8369;48.030;11.598;2023-11-22T10:43:40;3.90;99.90
16513;DHT22;8369;48.030;11.598;2023-11-22T10:46:08;3.90;99.90
16513;DHT22;8369;48.030;11.598;2023-11-22T10:48:46;3.90;99.90
16513;DHT22;8369;48.030;11.598;2023-11-22T10:51:13;4.00;99.90
16513;DHT22;8369;48.030;11.598;2023-11-22T10:53:48;4.00;99.90
16513;DHT22;8369;48.030;11.598;2023-11-22T10:56:15;4.00;99.90
16513;DHT22;8369;48.030;11.598;2023-11-22T10:58:48;4.00;99.90
16513;DHT22;8369;48.030;11.598;2023-11-22T11:01:20;4.00;99.90
16513;DHT22;8369;48.030;11.598;2023-11-22T11:03:59;4.00;99.90
16513;DHT22;8369;48.030;11.598;2023-11-22T11:06:31;4.00;99.90
16513;DHT22;8369;48.030;11.598;2023-11-22T11:09:00;4.00;99.90
16513;DHT22;8369;48.030;11.598;2023-11-22T11:11:28;4.00;99.90
16513;DHT22;8369;48.030;11.598;2023-11-22T11:13:54;4.00;99.90
16513;DHT22;8369;48.030;11.598;2023-11-22T11:16:22;4.00;99.90
16513;DHT22;8369;48.030;11.598;2023-11-22T11:18:49;4.00;99.90
16513;DHT22;8369;48.030;11.598;2023-11-22T11:21:15;4.00;99.90
16513;DHT22;8369;48.030;11.598;2023-11-22T11:23:41;4.00;99.90
16513;DHT22;8369;48.030;11.598;2023-11-22T11:26:19;4.00;99.90
16513;DHT22;8369;48.030;11.598;2023-11-22T11:28:51;4.00;99.90
16513;DHT22;8369;48.030;11.598;2023-11-22T11:31:21;3.90;99.90
16513;DHT22;8369;48.030;11.598;2023-11-22T11:36:29;4.00;99.90
16513;DHT22;8369;48.030;11.598;2023-11-22T11:38:56;4.00;99.90
16513;DHT22;8369;48.030;11.598;2023-11-22T11:41:30;4.00;99.90
16513;DHT22;8369;48.030;11.598;2023-11-22T11:43:58;4.00;99.90
16513;DHT22;8369;48.030;11.598;2023-11-22T11:46:25;4.00;99.90
16513;DHT22;8369;48.030;11.598;2023-11-22T11:48:53;4.10;99.90
16513;DHT22;8369;48.030;11.598;2023-11-22T11:51:24;4.00;99.90
16513;DHT22;8369;48.030;11.598;2023-11-22T11:53:50;4.10;99.90
16513;DHT22;8369;48.030;11.598;2023-11-22T11:56:17;4.10;99.90
16513;DHT22;8369;48.030;11.598;2023-11-22T11:58:46;4.10;99.90
16513;DHT22;8369;48.030;11.598;2023-11-22T12:01:14;4.10;99.90
16513;DHT22;8369;48.030;11.598;2023-11-22T12:03:42;4.10;99.90
16513;DHT22;8369;48.030;11.598;2023-11-22T12:06:08;4.20;99.90
16513;DHT22;8369;48.030;11.598;2023-11-22T12:08:34;4.30;99.90
16513;DHT22;8369;48.030;11.598;2023-11-22T12:11:03;4.20;99.90
16513;DHT22;8369;48.030;11.598;2023-11-22T12:13:37;4.20;99.90
16513;DHT22;8369;48.030;11.598;2023-11-22T12:16:07;4.20;99.90
16513;DHT22;8369;48.030;11.598;2023-11-22T12:18:43;4.20;99.90
16513;DHT22;8369;48.030;11.598;2023-11-22T12:21:10;4.20;99.90
16513;DHT22;8369;48.030;11.598;2023-11-22T12:23:40;4.30;99.90
16513;DHT22;8369;48.030;11.598;2023-11-22T12:26:13;4.30;99.90
16513;DHT22;8369;48.030;11.598;2023-11-22T12:28:46;4.30;99.90
16513;DHT22;8369;48.030;11.598;2023-11-22T12:31:13;4.30;99.90
16513;DHT22;8369;48.030;11.598;2023-11-22T12:33:43;4.20;99.90
16513;DHT22;8369;48.030;11.598;2023-11-22T12:36:10;4.20;99.90
16513;DHT22;8369;48.030;11.598;2023-11-22T12:38:36;4.20;99.90
16513;DHT22;8369;48.030;11.598;2023-11-22T12:41:03;4.20;99.90
16513;DHT22;8369;48.030;11.598;2023-11-22T12:43:32;4.20;99.90
16513;DHT22;8369;48.030;11.598;2023-11-22T12:46:05;4.20;99.90
16513;DHT22;8369;48.030;11.598;2023-11-22T12:48:41;4.20;99.90
16513;DHT22;8369;48.030;11.598;2023-11-22T12:51:17;4.20;99.90
16513;DHT22;8369;48.030;11.598;2023-11-22T12:53:46;4.20;99.90
16513;DHT22;8369;48.030;11.598;2023-11-22T12:56:12;4.20;99.90
16513;DHT22;8369;48.030;11.598;2023-11-22T12:58:38;4.20;99.90
16513;DHT22;8369;48.030;11.598;2023-11-22T13:01:04;4.20;99.90
16513;DHT22;8369;48.030;11.598;2023-11-22T13:03:30;4.20;99.90
16513;DHT22;8369;48.030;11.598;2023-11-22T13:05:57;4.20;99.90
16513;DHT22;8369;48.030;11.598;2023-11-22T13:08:23;4.20;99.90
16513;DHT22;8369;48.030;11.598;2023-11-22T13:10:50;4.20;99.90
16513;DHT22;8369;48.030;11.598;2023-11-22T13:13:22;4.30;99.90
16513;DHT22;8369;48.030;11.598;2023-11-22T13:15:48;4.30;99.90
16513;DHT22;8369;48.030;11.598;2023-11-22T13:18:17;4.30;99.90
16513;DHT22;8369;48.030;11.598;2023-11-22T13:20:44;4.30;99.90
16513;DHT22;8369;48.030;11.598;2023-11-22T13:23:13;4.40;99.90
16513;DHT22;8369;48.030;11.598;2023-11-22T13:25:42;4.30;99.90
16513;DHT22;8369;48.030;11.598;2023-11-22T13:28:08;4.40;99.90
16513;DHT22;8369;48.030;11.598;2023-11-22T13:30:34;4.30;99.90
16513;DHT22;8369;48.030;11.598;2023-11-22T13:33:00;4.30;99.90
16513;DHT22;8369;48.030;11.598;2023-11-22T13:35:28;4.40;99.90
16513;DHT22;8369;48.030;11.598;2023-11-22T13:38:00;4.40;99.90
16513;DHT22;8369;48.030;11.598;2023-11-22T13:40:27;4.40;99.90
16513;DHT22;8369;48.030;11.598;2023-11-22T13:42:57;4.40;99.90
16513;DHT22;8369;48.030;11.598;2023-11-22T13:45:23;4.40;99.90
16513;DHT22;8369;48.030;11.598;2023-11-22T13:47:53;4.40;99.90
16513;DHT22;8369;48.030;11.598;2023-11-22T13:50:23;4.40;99.90
16513;DHT22;8369;48.030;11.598;2023-11-22T13:52:49;4.40;99.90
16513;DHT22;8369;48.030;11.598;2023-11-22T13:55:17;4.30;99.90
16513;DHT22;8369;48.030;11.598;2023-11-22T13:57:51;4.40;99.90
16513;DHT22;8369;48.030;11.598;2023-11-22T14:00:20;4.40;99.90
16513;DHT22;8369;48.030;11.598;2023-11-22T14:02:52;4.40;99.90
16513;DHT22;8369;48.030;11.598;2023-11-22T14:05:25;4.40;99.90
16513;DHT22;8369;48.030;11.598;2023-11-22T14:07:52;4.40;99.90
16513;DHT22;8369;48.030;11.598;2023-11-22T14:10:20;4.40;99.90
16513;DHT22;8369;48.030;11.598;2023-11-22T14:12:49;4.40;99.90
16513;DHT22;8369;48.030;11.598;2023-11-22T14:18:47;4.40;99.90
16513;DHT22;8369;48.030;11.598;2023-11-22T14:21:13;4.40;99.90
16513;DHT22;8369;48.030;11.598;2023-11-22T14:23:40;4.40;99.90
16513;DHT22;8369;48.030;11.598;2023-11-22T14:26:06;4.40;99.90
16513;DHT22;8369;48.030;11.598;2023-11-22T14:28:32;4.40;99.90
16513;DHT22;8369;48.030;11.598;2023-11-22T14:30:58;4.40;99.90
16513;DHT22;8369;48.030;11.598;2023-11-22T14:33:24;4.40;99.90
16513;DHT22;8369;48.030;11.598;2023-11-22T14:35:51;4.40;99.90
16513;DHT22;8369;48.030;11.598;2023-11-22T14:38:16;4.40;99.90
16513;DHT22;8369;48.030;11.598;2023-11-22T14:40:43;4.30;99.90
16513;DHT22;8369;48.030;11.598;2023-11-22T14:43:09;4.30;99.90
16513;DHT22;8369;48.030;11.598;2023-11-22T14:45:35;4.30;99.90
16513;DHT22;8369;48.030;11.598;2023-11-22T14:48:02;4.30;99.90
16513;DHT22;8369;48.030;11.598;2023-11-22T14:50:28;4.20;99.90
16513;DHT22;8369;48.030;11.598;2023-11-22T14:52:54;4.20;99.90
16513;DHT22;8369;48.030;11.598;2023-11-22T14:55:20;4.20;99.90
16513;DHT22;8369;48.030;11.598;2023-11-22T14:57:48;4.20;99.90
16513;DHT22;8369;48.030;11.598;2023-11-22T15:00:16;4.20;99.90
16513;DHT22;8369;48.030;11.598;2023-11-22T15:02:42;4.20;99.90
16513;DHT22;8369;48.030;11.598;2023-11-22T15:05:19;4.20;99.90
16513;DHT22;8369;48.030;11.598;2023-11-22T15:07:45;4.10;99.90
16513;DHT22;8369;48.030;11.598;2023-11-22T15:10:11;4.10;99.90
16513;DHT22;8369;48.030;11.598;2023-11-22T15:12:38;4.20;99.90
16513;DHT22;8369;48.030;11.598;2023-11-22T15:15:08;4.20;99.90
16513;DHT22;8369;48.030;11.598;2023-11-22T15:17:34;4.10;99.90
16513;DHT22;8369;48.030;11.598;2023-11-22T15:20:00;4.10;99.90
16513;DHT22;8369;48.030;11.598;2023-11-22T15:22:25;4.10;99.90
16513;DHT22;8369;48.030;11.598;2023-11-22T15:24:51;4.10;99.90
16513;DHT22;8369;48.030;11.598;2023-11-22T15:27:18;4.10;99.90
16513;DHT22;8369;48.030;11.598;2023-11-22T15:29:43;4.10;99.90
16513;DHT22;8369;48.030;11.598;2023-11-22T15:32:09;4.10;99.90
16513;DHT22;8369;48.030;11.598;2023-11-22T15:34:35;4.10;99.90
16513;DHT22;8369;48.030;11.598;2023-11-22T15:37:03;4.10;99.90
16513;DHT22;8369;48.030;11.598;2023-11-22T15:39:29;4.10;99.90
16513;DHT22;8369;48.030;11.598;2023-11-22T15:41:55;4.10;99.90
16513;DHT22;8369;48.030;11.598;2023-11-22T15:44:20;4.10;99.90
16513;DHT22;8369;48.030;11.598;2023-11-22T15:46:46;4.10;99.90
16513;DHT22;8369;48.030;11.598;2023-11-22T15:49:13;4.10;99.90
16513;DHT22;8369;48.030;11.598;2023-11-22T15:51:39;4.00;99.90